createdAt,value
2023-08-12T00:00:57.047Z,20.15
2023-08-12T00:03:43.256Z,20.24
2023-08-12T00:06:29.306Z,20.26
2023-08-12T00:09:16.787Z,20.07
2023-08-12T00:12:02.600Z,19.99
2023-08-12T00:14:47.914Z,19.92
2023-08-12T00:17:33.620Z,20.17
2023-08-12T00:20:19.632Z,20.25
2023-08-12T00:23:05.587Z,20.21
2023-08-12T00:25:51.176Z,20.19
2023-08-12T00:28:36.184Z,20.17
2023-08-12T00:31:21.536Z,20.15
2023-08-12T00:34:06.866Z,20.33
2023-08-12T00:36:52.079Z,20.21
2023-08-12T00:39:38.096Z,20.30
2023-08-12T00:42:23.094Z,20.25
2023-08-12T00:45:14.175Z,20.47
2023-08-12T00:47:59.631Z,20.20
2023-08-12T00:50:46.466Z,20.52
2023-08-12T00:53:31.721Z,20.36
2023-08-12T00:56:18.293Z,20.15
2023-08-12T00:59:08.701Z,20.33
2023-08-12T01:01:54.122Z,20.19
2023-08-12T01:04:39.865Z,20.05
2023-08-12T01:07:24.932Z,20.07
2023-08-12T01:10:15.467Z,20.37
2023-08-12T01:13:31.160Z,20.37
2023-08-12T01:16:19.418Z,20.01
2023-08-12T01:19:08.175Z,20.00
2023-08-12T01:21:55.481Z,19.76
2023-08-12T01:24:45.704Z,19.95
2023-08-12T01:27:31.020Z,20.32
2023-08-12T01:30:17.626Z,20.40
2023-08-12T01:33:09.509Z,20.37
2023-08-12T01:36:02.529Z,20.04
2023-08-12T01:38:48.281Z,19.84
2023-08-12T01:41:33.783Z,20.05
2023-08-12T01:44:19.618Z,20.21
2023-08-12T01:47:05.481Z,20.05
2023-08-12T01:49:50.544Z,19.86
2023-08-12T01:52:36.154Z,19.76
2023-08-12T01:55:21.501Z,19.90
2023-08-12T01:58:06.962Z,20.17
2023-08-12T02:00:52.291Z,19.78
2023-08-12T02:03:37.544Z,19.64
2023-08-12T02:06:23.474Z,19.51
2023-08-12T02:09:08.795Z,19.55
2023-08-12T02:11:54.520Z,19.44
2023-08-12T02:14:39.960Z,19.27
2023-08-12T02:17:25.313Z,19.36
2023-08-12T02:20:11.477Z,19.48
2023-08-12T02:22:56.929Z,19.12
2023-08-12T02:25:41.978Z,19.33
2023-08-12T02:28:27.753Z,19.46
2023-08-12T02:31:13.205Z,19.37
2023-08-12T02:33:58.423Z,19.37
2023-08-12T02:36:44.148Z,19.23
2023-08-12T02:39:29.640Z,19.11
2023-08-12T02:42:15.471Z,19.06
2023-08-12T02:45:01.144Z,19.22
2023-08-12T02:47:47.098Z,19.11
2023-08-12T02:50:32.514Z,18.93
2023-08-12T02:53:18.844Z,19.06
2023-08-12T02:56:04.067Z,18.96
2023-08-12T02:58:49.985Z,19.07
2023-08-12T03:01:35.749Z,19.53
2023-08-12T03:04:21.394Z,19.42
2023-08-12T03:07:06.640Z,19.10
2023-08-12T03:09:52.026Z,19.29
2023-08-12T03:12:37.869Z,19.22
2023-08-12T03:15:23.495Z,19.33
2023-08-12T03:18:08.892Z,19.09
2023-08-12T03:20:54.384Z,19.03
2023-08-12T03:23:40.233Z,19.15
2023-08-12T03:26:25.717Z,19.20
2023-08-12T03:29:11.606Z,19.64
2023-08-12T03:31:57.148Z,19.76
2023-08-12T03:34:42.417Z,19.67
2023-08-12T03:37:28.226Z,19.57
2023-08-12T03:40:13.826Z,19.64
2023-08-12T03:42:59.285Z,19.51
2023-08-12T03:45:45.837Z,19.15
2023-08-12T03:48:31.354Z,19.01
2023-08-12T03:51:17.097Z,19.04
2023-08-12T03:54:02.564Z,19.00
2023-08-12T03:56:47.871Z,19.07
2023-08-12T03:59:33.526Z,19.02
2023-08-12T04:02:18.912Z,19.08
2023-08-12T04:05:04.079Z,19.13
2023-08-12T04:07:50.013Z,19.19
2023-08-12T04:10:35.373Z,19.06
2023-08-12T04:13:21.022Z,19.08
2023-08-12T04:16:06.045Z,19.49
2023-08-12T04:18:51.881Z,19.91
2023-08-12T04:21:37.170Z,19.77
2023-08-12T04:24:22.967Z,19.90
2023-08-12T04:27:08.453Z,19.88
2023-08-12T04:29:53.996Z,20.07
2023-08-12T04:32:39.670Z,20.31
2023-08-12T04:35:24.906Z,19.89
2023-08-12T04:38:10.648Z,19.85
2023-08-12T04:40:56.217Z,19.73
2023-08-12T04:43:41.797Z,19.63
2023-08-12T04:46:26.912Z,19.38
2023-08-12T04:49:11.835Z,19.41
2023-08-12T04:51:56.899Z,19.41
2023-08-12T04:54:42.260Z,19.83
2023-08-12T04:57:27.837Z,20.14
2023-08-12T05:00:13.886Z,19.89
2023-08-12T05:02:59.547Z,19.84
2023-08-12T05:05:45.038Z,19.97
2023-08-12T05:08:30.125Z,19.77
2023-08-12T05:11:15.415Z,20.05
2023-08-12T05:14:00.459Z,19.85
2023-08-12T05:16:45.773Z,19.68
2023-08-12T05:19:31.027Z,19.73
2023-08-12T05:22:17.356Z,19.76
2023-08-12T05:25:03.222Z,19.56
2023-08-12T05:27:48.186Z,19.37
2023-08-12T05:30:33.494Z,19.65
2023-08-12T05:33:18.581Z,19.59
2023-08-12T05:36:04.350Z,19.56
2023-08-12T05:38:49.999Z,19.75
2023-08-12T05:41:35.589Z,19.79
2023-08-12T05:44:20.971Z,19.77
2023-08-12T05:47:06.152Z,19.82
2023-08-12T05:49:51.394Z,19.91
2023-08-12T05:52:36.868Z,19.87
2023-08-12T05:55:22.745Z,19.72
2023-08-12T05:58:08.856Z,19.76
2023-08-12T06:00:54.146Z,19.70
2023-08-12T06:03:39.175Z,19.72
2023-08-12T06:06:24.704Z,19.74
2023-08-12T06:09:10.012Z,19.88
2023-08-12T06:11:55.976Z,19.99
2023-08-12T06:14:41.249Z,19.98
2023-08-12T06:17:26.992Z,20.03
2023-08-12T06:20:13.354Z,20.07
2023-08-12T06:22:58.459Z,20.35
2023-08-12T06:25:44.339Z,20.34
2023-08-12T06:28:29.710Z,20.36
2023-08-12T06:31:15.175Z,20.54
2023-08-12T06:34:00.753Z,20.63
2023-08-12T06:36:46.210Z,20.57
2023-08-12T06:39:31.149Z,20.72
2023-08-12T06:42:16.716Z,20.70
2023-08-12T06:45:05.002Z,20.85
2023-08-12T06:47:50.934Z,20.90
2023-08-12T06:50:36.668Z,20.90
2023-08-12T06:53:21.950Z,20.94
2023-08-12T06:56:07.706Z,20.96
2023-08-12T06:58:53.247Z,20.94
2023-08-12T07:01:38.805Z,21.00
2023-08-12T07:04:24.398Z,21.17
2023-08-12T07:07:09.789Z,21.17
2023-08-12T07:09:55.171Z,21.05
2023-08-12T07:12:40.637Z,21.14
2023-08-12T07:15:26.072Z,21.11
2023-08-12T07:18:11.248Z,21.08
2023-08-12T07:20:56.985Z,21.04
2023-08-12T07:23:51.477Z,21.13
2023-08-12T07:26:47.976Z,21.10
2023-08-12T07:29:32.830Z,21.12
2023-08-12T07:32:19.190Z,21.10
2023-08-12T07:35:04.570Z,21.12
2023-08-12T07:37:52.434Z,21.03
2023-08-12T07:40:39.138Z,20.89
2023-08-12T07:43:26.226Z,20.93
2023-08-12T07:46:11.628Z,21.01
2023-08-12T07:48:57.723Z,20.99
2023-08-12T07:51:43.690Z,21.06
2023-08-12T07:54:29.358Z,20.99
2023-08-12T07:57:14.706Z,21.03
2023-08-12T07:59:59.732Z,21.03
2023-08-12T08:02:45.162Z,21.07
2023-08-12T08:05:30.388Z,21.15
2023-08-12T08:08:15.586Z,21.10
2023-08-12T08:11:00.788Z,21.33
2023-08-12T08:13:46.420Z,21.42
2023-08-12T08:16:32.279Z,21.40
2023-08-12T08:22:05.133Z,21.19
2023-08-12T08:24:50.235Z,21.17
2023-08-12T08:27:35.204Z,21.14
2023-08-12T08:30:20.412Z,21.02
2023-08-12T08:33:06.475Z,21.07
2023-08-12T08:35:52.107Z,21.09
2023-08-12T08:38:38.112Z,21.23
2023-08-12T08:41:25.331Z,21.20
2023-08-12T08:44:10.997Z,21.24
2023-08-12T08:46:56.864Z,21.30
2023-08-12T08:49:43.104Z,21.24
2023-08-12T08:52:29.943Z,21.38
2023-08-12T08:55:15.896Z,21.33
2023-08-12T08:58:03.245Z,21.44
2023-08-12T09:00:51.375Z,21.56
2023-08-12T09:03:39.543Z,21.54
2023-08-12T09:06:27.268Z,21.50
2023-08-12T09:09:17.613Z,21.45
2023-08-12T09:12:05.460Z,21.59
2023-08-12T09:14:50.691Z,21.54
2023-08-12T09:17:36.041Z,21.52
2023-08-12T09:20:21.765Z,21.46
2023-08-12T09:23:10.281Z,21.37
2023-08-12T09:25:55.704Z,21.35
2023-08-12T09:28:43.371Z,21.37
2023-08-12T09:31:32.173Z,21.32
2023-08-12T09:34:18.896Z,21.35
2023-08-12T09:37:04.655Z,21.37
2023-08-12T09:39:51.125Z,21.43
2023-08-12T09:42:36.678Z,21.52
2023-08-12T09:45:25.695Z,21.60
2023-08-12T09:48:11.508Z,21.68
2023-08-12T09:50:57.897Z,21.69
2023-08-12T09:53:43.506Z,21.75
2023-08-12T09:56:33.695Z,21.76
2023-08-12T09:59:24.339Z,21.80
2023-08-12T10:02:33.745Z,21.77
2023-08-12T10:05:27.013Z,21.72
2023-08-12T10:08:15.181Z,21.61
2023-08-12T10:11:12.553Z,21.55
2023-08-12T10:13:58.877Z,21.63
2023-08-12T10:16:47.754Z,21.64
2023-08-12T10:19:34.223Z,21.67
2023-08-12T10:22:27.333Z,21.61
2023-08-12T10:25:15.566Z,21.75
2023-08-12T10:28:01.358Z,21.85
2023-08-12T10:30:47.707Z,22.00
2023-08-12T10:33:40.065Z,22.23
2023-08-12T10:36:28.921Z,22.29
2023-08-12T10:39:27.500Z,22.42
2023-08-12T10:42:49.778Z,22.66
2023-08-12T10:45:50.294Z,23.09
2023-08-12T10:48:35.819Z,23.49
2023-08-12T10:51:40.964Z,24.04
2023-08-12T10:54:34.867Z,24.18
2023-08-12T10:57:36.459Z,24.19
2023-08-12T11:00:25.789Z,23.91
2023-08-12T11:03:13.498Z,23.77
2023-08-12T11:06:00.572Z,23.69
2023-08-12T11:08:53.617Z,23.61
2023-08-12T11:11:59.888Z,23.55
2023-08-12T11:14:55.933Z,23.61
2023-08-12T11:17:42.900Z,23.59
2023-08-12T11:20:29.624Z,23.55
2023-08-12T11:23:15.762Z,23.54
2023-08-12T11:26:02.409Z,23.48
2023-08-12T11:28:48.241Z,23.62
2023-08-12T11:31:35.725Z,23.51
2023-08-12T11:34:23.920Z,23.75
2023-08-12T11:37:09.939Z,23.96
2023-08-12T11:39:55.669Z,24.45
2023-08-12T11:42:42.753Z,24.92
2023-08-12T11:45:33.816Z,24.96
2023-08-12T11:48:19.464Z,25.22
2023-08-12T11:51:05.008Z,25.50
2023-08-12T11:53:50.304Z,25.99
2023-08-12T11:56:35.411Z,26.38
2023-08-12T11:59:23.104Z,26.21
2023-08-12T12:02:08.677Z,26.44
2023-08-12T12:04:54.277Z,26.26
2023-08-12T12:07:40.130Z,26.63
2023-08-12T12:10:33.834Z,27.04
2023-08-12T12:13:21.187Z,27.29
2023-08-12T12:16:12.095Z,27.48
2023-08-12T12:19:00.232Z,27.64
2023-08-12T12:21:47.565Z,27.41
2023-08-12T12:24:45.678Z,27.63
2023-08-12T12:27:32.504Z,28.02
2023-08-12T12:30:18.481Z,27.37
2023-08-12T12:33:03.757Z,27.27
2023-08-12T12:35:57.852Z,28.12
2023-08-12T12:38:44.688Z,27.89
2023-08-12T12:41:31.939Z,27.09
2023-08-12T12:44:18.722Z,26.44
2023-08-12T12:47:04.966Z,26.32
2023-08-12T12:49:53.497Z,26.20
2023-08-12T12:52:38.895Z,25.89
2023-08-12T12:55:24.705Z,25.79
2023-08-12T12:58:12.836Z,25.68
2023-08-12T13:00:58.402Z,25.81
2023-08-12T13:03:45.669Z,26.44
2023-08-12T13:06:31.761Z,27.40
2023-08-12T13:09:16.808Z,27.99
2023-08-12T13:12:02.414Z,28.56
2023-08-12T13:14:48.179Z,28.48
2023-08-12T13:17:33.634Z,28.35
2023-08-12T13:20:20.579Z,27.97
2023-08-12T13:23:06.065Z,27.61
2023-08-12T13:25:54.376Z,27.71
2023-08-12T13:28:39.853Z,27.57
2023-08-12T13:31:27.130Z,27.44
2023-08-12T13:34:11.936Z,27.17
2023-08-12T13:36:57.437Z,27.12
2023-08-12T13:39:42.740Z,27.00
2023-08-12T13:42:28.391Z,27.05
2023-08-12T13:45:14.584Z,27.23
2023-08-12T13:48:00.133Z,26.99
2023-08-12T13:50:46.228Z,27.08
2023-08-12T13:53:34.548Z,26.94
2023-08-12T13:56:22.000Z,26.85
2023-08-12T13:59:07.058Z,26.50
2023-08-12T14:01:52.443Z,26.54
2023-08-12T14:04:38.312Z,26.40
2023-08-12T14:07:26.167Z,26.36
2023-08-12T14:10:11.034Z,26.26
2023-08-12T14:12:56.626Z,26.46
2023-08-12T14:15:42.150Z,26.65
2023-08-12T14:18:28.077Z,27.28
2023-08-12T14:21:13.747Z,27.64
2023-08-12T14:23:59.051Z,27.61
2023-08-12T14:26:44.793Z,27.93
2023-08-12T14:29:31.330Z,27.93
2023-08-12T14:32:17.767Z,28.24
2023-08-12T14:35:03.257Z,28.15
2023-08-12T14:37:49.317Z,28.16
2023-08-12T14:40:35.285Z,27.41
2023-08-12T14:43:21.017Z,27.10
2023-08-12T14:46:06.254Z,27.02
2023-08-12T14:48:54.827Z,26.68
2023-08-12T14:51:40.431Z,26.80
2023-08-12T14:54:25.665Z,26.72
2023-08-12T14:57:11.021Z,26.89
2023-08-12T14:59:56.273Z,26.91
2023-08-12T15:02:42.220Z,26.82
2023-08-12T15:05:27.406Z,26.71
2023-08-12T15:08:16.493Z,26.70
2023-08-12T15:11:02.403Z,26.65
2023-08-12T15:13:47.807Z,27.00
2023-08-12T15:16:33.178Z,27.06
2023-08-12T15:19:20.948Z,27.29
2023-08-12T15:22:06.603Z,27.41
2023-08-12T15:24:53.895Z,27.67
2023-08-12T15:27:40.092Z,27.76
2023-08-12T15:30:25.707Z,28.00
2023-08-12T15:33:10.771Z,27.89
2023-08-12T15:35:56.392Z,28.06
2023-08-12T15:38:42.812Z,28.29
2023-08-12T15:41:28.198Z,28.15
2023-08-12T15:44:14.470Z,27.95
2023-08-12T15:46:59.404Z,27.69
2023-08-12T15:49:45.208Z,27.33
2023-08-12T15:52:33.966Z,27.26
2023-08-12T15:55:19.349Z,27.34
2023-08-12T15:58:05.022Z,27.05
2023-08-12T16:00:50.401Z,27.30
2023-08-12T16:03:36.821Z,27.28
2023-08-12T16:06:22.315Z,27.18
2023-08-12T16:09:18.288Z,27.14
2023-08-12T16:12:04.434Z,27.05
2023-08-12T16:14:49.764Z,26.86
2023-08-12T16:17:35.412Z,26.80
2023-08-12T16:20:20.756Z,26.77
2023-08-12T16:23:06.127Z,26.67
2023-08-12T16:25:51.637Z,26.50
2023-08-12T16:28:37.044Z,26.29
2023-08-12T16:31:23.229Z,26.18
2023-08-12T16:34:09.029Z,26.12
2023-08-12T16:37:10.392Z,25.94
2023-08-12T16:39:59.395Z,25.91
2023-08-12T16:42:44.605Z,25.57
2023-08-12T16:45:30.184Z,25.31
2023-08-12T16:48:15.771Z,25.09
2023-08-12T16:51:00.997Z,25.10
2023-08-12T16:53:46.624Z,25.00
2023-08-12T16:56:31.978Z,25.12
2023-08-12T16:59:17.589Z,25.13
2023-08-12T17:02:03.198Z,25.15
2023-08-12T17:04:48.448Z,25.18
2023-08-12T17:07:34.052Z,25.16
2023-08-12T17:10:19.551Z,25.09
2023-08-12T17:13:04.859Z,24.99
2023-08-12T17:15:50.449Z,24.58
2023-08-12T17:18:36.080Z,24.56
2023-08-12T17:21:21.053Z,24.54
2023-08-12T17:24:06.615Z,24.61
2023-08-12T17:26:53.266Z,24.72
2023-08-12T17:29:38.751Z,24.70
2023-08-12T17:32:26.025Z,24.80
2023-08-12T17:35:12.046Z,24.83
2023-08-12T17:37:57.333Z,24.88
2023-08-12T17:40:43.115Z,24.75
2023-08-12T17:43:28.422Z,24.63
2023-08-12T17:46:14.652Z,24.53
2023-08-12T17:48:59.932Z,24.48
2023-08-12T17:51:46.169Z,24.43
2023-08-12T17:54:31.724Z,24.35
2023-08-12T17:57:17.923Z,24.23
2023-08-12T18:00:03.938Z,23.93
2023-08-12T18:02:52.982Z,23.88
2023-08-12T18:05:39.416Z,23.89
2023-08-12T18:08:27.011Z,23.98
2023-08-12T18:11:12.454Z,23.89
2023-08-12T18:13:57.939Z,23.83
2023-08-12T18:16:43.386Z,23.82
2023-08-12T18:19:29.676Z,23.68
2023-08-12T18:22:15.478Z,23.70
2023-08-12T18:25:01.388Z,23.58
2023-08-12T18:27:47.697Z,23.64
2023-08-12T18:30:33.002Z,23.55
2023-08-12T18:33:18.340Z,23.68
2023-08-12T18:36:04.494Z,23.49
2023-08-12T18:38:53.025Z,23.57
2023-08-12T18:41:39.505Z,23.45
2023-08-12T18:44:24.765Z,23.42
2023-08-12T18:47:12.789Z,23.46
2023-08-12T18:49:58.170Z,23.37
2023-08-12T18:52:45.650Z,23.31
2023-08-12T18:55:33.311Z,23.28
2023-08-12T18:58:21.537Z,23.16
2023-08-12T19:01:06.821Z,23.16
2023-08-12T19:03:54.891Z,23.22
2023-08-12T19:06:40.464Z,23.11
2023-08-12T19:09:27.001Z,23.03
2023-08-12T19:12:14.030Z,22.86
2023-08-12T19:14:59.643Z,22.78
2023-08-12T19:17:46.694Z,22.72
2023-08-12T19:20:32.592Z,22.56
2023-08-12T19:23:21.715Z,22.55
2023-08-12T19:26:07.459Z,22.47
2023-08-12T19:28:52.997Z,22.20
2023-08-12T19:31:41.197Z,22.22
2023-08-12T19:34:26.996Z,22.20
2023-08-12T19:37:12.383Z,21.95
2023-08-12T19:40:00.314Z,21.94
2023-08-12T19:42:47.034Z,21.91
2023-08-12T19:45:33.045Z,21.87
2023-08-12T19:48:18.331Z,21.83
2023-08-12T19:51:04.769Z,21.78
2023-08-12T19:53:50.397Z,21.86
2023-08-12T19:56:39.046Z,21.82
2023-08-12T19:59:26.023Z,21.74
2023-08-12T20:02:36.569Z,21.69
2023-08-12T20:05:27.621Z,21.55
2023-08-12T20:08:13.918Z,21.59
2023-08-12T20:10:59.614Z,21.45
2023-08-12T20:13:45.112Z,21.31
2023-08-12T20:16:35.213Z,21.31
2023-08-12T20:19:21.319Z,21.33
2023-08-12T20:22:06.688Z,21.30
2023-08-12T20:24:52.630Z,21.25
2023-08-12T20:27:37.800Z,21.17
2023-08-12T20:30:23.533Z,21.17
2023-08-12T20:33:11.206Z,21.09
2023-08-12T20:35:56.679Z,21.08
2023-08-12T20:38:43.066Z,21.01
2023-08-12T20:41:29.129Z,20.93
2023-08-12T20:44:16.973Z,20.98
2023-08-12T20:47:09.636Z,20.96
2023-08-12T20:49:56.366Z,20.83
2023-08-12T20:52:43.877Z,20.79
2023-08-12T20:55:30.051Z,20.83
2023-08-12T20:58:15.542Z,20.84
2023-08-12T21:01:01.727Z,20.61
2023-08-12T21:03:47.622Z,20.59
2023-08-12T21:06:33.038Z,20.67
2023-08-12T21:09:24.070Z,20.60
2023-08-12T21:12:16.094Z,20.59
2023-08-12T21:15:02.777Z,20.51
2023-08-12T21:17:49.286Z,20.31
2023-08-12T21:20:44.920Z,20.51
2023-08-12T21:23:32.396Z,20.21
2023-08-12T21:26:17.644Z,20.50
2023-08-12T21:29:04.450Z,20.51
2023-08-12T21:31:50.178Z,20.52
2023-08-12T21:34:35.618Z,20.32
2023-08-12T21:37:20.703Z,20.38
2023-08-12T21:40:07.803Z,20.34
2023-08-12T21:42:53.333Z,20.30
2023-08-12T21:45:38.724Z,20.39
2023-08-12T21:48:24.004Z,20.68
2023-08-12T21:51:10.126Z,20.89
2023-08-12T21:53:55.342Z,20.72
2023-08-12T21:56:40.751Z,20.91
2023-08-12T21:59:27.121Z,21.09
2023-08-12T22:02:12.943Z,21.19
2023-08-12T22:04:58.663Z,21.19
2023-08-12T22:07:44.179Z,21.15
2023-08-12T22:10:29.449Z,20.83
2023-08-12T22:13:14.882Z,20.89
2023-08-12T22:16:00.229Z,20.84
2023-08-12T22:18:45.716Z,20.91
2023-08-12T22:21:31.168Z,21.10
2023-08-12T22:24:16.133Z,20.81
2023-08-12T22:27:01.397Z,20.85
2023-08-12T22:29:46.844Z,20.66
2023-08-12T22:32:32.160Z,20.24
2023-08-12T22:35:19.581Z,19.92
2023-08-12T22:38:04.794Z,20.00
2023-08-12T22:40:50.056Z,19.79
2023-08-12T22:43:35.135Z,19.54
2023-08-12T22:46:20.825Z,19.14
2023-08-12T22:49:05.850Z,19.25
2023-08-12T22:51:51.483Z,19.46
2023-08-12T22:54:36.833Z,19.56
2023-08-12T22:57:22.750Z,19.82
2023-08-12T23:00:08.452Z,19.57
2023-08-12T23:02:53.620Z,19.61
2023-08-12T23:05:38.565Z,19.25
2023-08-12T23:08:24.070Z,19.70
2023-08-12T23:11:09.165Z,20.12
2023-08-12T23:13:54.935Z,20.25
2023-08-12T23:16:40.679Z,20.45
2023-08-12T23:19:26.795Z,19.73
2023-08-12T23:22:12.419Z,19.96
2023-08-12T23:24:58.003Z,20.11
2023-08-12T23:27:46.214Z,20.05
2023-08-12T23:30:31.617Z,19.46
2023-08-12T23:33:16.874Z,19.29
2023-08-12T23:36:01.911Z,18.98
2023-08-12T23:38:47.383Z,18.58
2023-08-12T23:41:33.017Z,18.37
2023-08-12T23:44:18.712Z,19.40
2023-08-12T23:47:04.148Z,19.52
2023-08-12T23:49:50.769Z,19.24
2023-08-12T23:52:37.001Z,19.27
2023-08-12T23:55:22.333Z,19.47
2023-08-12T23:58:07.756Z,19.33
